Time;durP1;ratioP1;P1;durP2;ratioP2;P2;SDS_P1;SDS_P2;PMS_P1;PMS_P2;Temp;Humidity;BMP_temperature;BMP_pressure;BME280_temperature;BME280_humidity;BME280_pressure;Samples;Min_cycle;Max_cycle;Signal;HPM_P1;HPM_P2
2022/05/08 00:02:19;;;;;;;8.63;4.70;;;;;;;14.33;72.11;100520.31;6220300;23;20027;-68
2022/05/08 00:05:04;;;;;;;14.43;5.18;;;;;;;14.30;71.91;100493.69;6218802;23;20031;-67
2022/05/08 00:07:48;;;;;;;8.10;4.85;;;;;;;14.43;71.73;100518.31;6221446;23;20381;-68
2022/05/08 00:10:33;;;;;;;15.02;4.53;;;;;;;14.46;71.74;100510.19;6218251;23;20103;-67
2022/05/08 00:13:17;;;;;;;11.05;4.53;;;;;;;14.47;71.26;100506.63;6206946;23;20075;-68
2022/05/08 00:16:03;;;;;;;12.90;4.82;;;;;;;14.43;70.42;100523.63;6218393;23;20331;-67
2022/05/08 00:18:47;;;;;;;9.43;4.60;;;;;;;14.18;71.03;100522.38;6239175;23;20054;-67
2022/05/08 00:21:31;;;;;;;8.50;4.70;;;;;;;14.00;73.13;100523.66;6218961;23;20473;-67
2022/05/08 00:24:16;;;;;;;9.68;4.78;;;;;;;13.98;73.85;100521.94;6205203;23;20031;-69
2022/05/08 00:27:00;;;;;;;10.77;4.72;;;;;;;14.08;73.79;100520.84;6220178;23;20032;-67
2022/05/08 00:29:45;;;;;;;9.13;4.63;;;;;;;14.09;74.35;100503.94;6208595;23;20470;-68
2022/05/08 00:32:29;;;;;;;15.98;5.50;;;;;;;14.28;73.20;100516.84;6220973;23;20115;-68
2022/05/08 00:35:14;;;;;;;8.32;4.57;;;;;;;14.38;71.96;100518.41;6209554;23;20108;-67
2022/05/08 00:37:58;;;;;;;9.02;4.47;;;;;;;14.50;71.77;100520.78;6210683;23;20059;-68
2022/05/08 00:40:43;;;;;;;16.63;4.95;;;;;;;14.46;70.95;100512.88;6221105;23;20031;-67
2022/05/08 00:43:50;;;;;;;11.48;4.53;;;;;;;14.46;71.24;100512.88;6208072;23;20027;-69
2022/05/08 00:46:34;;;;;;;15.07;4.82;;;;;;;14.21;71.46;100490.31;6220775;23;20043;-67
2022/05/08 00:49:19;;;;;;;9.43;4.63;;;;;;;14.13;71.63;100492.28;6220704;23;20150;-68
2022/05/08 00:52:05;;;;;;;11.35;5.07;;;;;;;14.12;73.00;100510.06;6238509;23;20031;-68
2022/05/08 00:54:50;;;;;;;12.60;4.93;;;;;;;14.15;72.65;100506.47;6210713;23;20032;-67
2022/05/08 00:57:36;;;;;;;11.82;4.43;;;;;;;14.12;73.03;100493.19;6238830;23;20486;-67
2022/05/08 01:00:24;;;;;;;13.30;4.97;;;;;;;13.96;74.35;100508.66;6219318;23;20354;-67
2022/05/08 01:03:08;;;;;;;8.35;4.30;;;;;;;13.96;74.43;100486.47;6219259;23;20127;-67
2022/05/08 01:05:55;;;;;;;11.10;4.57;;;;;;;14.08;73.42;100483.50;6208216;23;20027;-68
2022/05/08 01:08:44;;;;;;;11.35;4.60;;;;;;;14.23;72.25;100476.06;6210487;23;20379;-67
2022/05/08 01:11:28;;;;;;;10.32;4.93;;;;;;;14.15;71.99;100490.47;6218998;23;20030;-67
2022/05/08 01:14:13;;;;;;;10.02;4.57;;;;;;;13.97;73.59;100491.75;6209198;23;20364;-67
2022/05/08 01:16:58;;;;;;;9.25;4.50;;;;;;;13.99;73.94;100495.25;6219242;23;20518;-67
2022/05/08 01:19:42;;;;;;;10.70;4.55;;;;;;;14.09;74.30;100504.81;6220337;23;20031;-67
2022/05/08 01:22:27;;;;;;;13.65;4.43;;;;;;;14.10;74.22;100490.56;6220423;23;20533;-67
2022/05/08 01:25:11;;;;;;;7.85;4.25;;;;;;;14.15;73.73;100493.13;6206762;23;20047;-69
2022/05/08 01:27:55;;;;;;;11.13;4.45;;;;;;;13.93;73.77;100468.75;6220303;23;20030;-67
2022/05/08 01:30:42;;;;;;;14.55;4.43;;;;;;;14.09;73.52;100483.47;6206889;23;20104;-67
2022/05/08 01:33:27;;;;;;;7.03;4.07;;;;;;;14.00;73.47;100478.34;6220102;23;20477;-67
2022/05/08 01:36:12;;;;;;;10.65;4.57;;;;;;;13.80;74.39;100451.25;6210236;23;20443;-67
2022/05/08 01:38:56;;;;;;;7.97;4.20;;;;;;;13.94;74.20;100478.50;6220058;23;20370;-67
2022/05/08 01:41:41;;;;;;;10.20;3.90;;;;;;;13.93;74.45;100469.59;6209162;23;20123;-67
2022/05/08 01:44:25;;;;;;;6.93;4.13;;;;;;;13.78;74.64;100458.41;6218313;23;20108;-68
2022/05/08 01:50:13;;;;;;;9.80;4.28;;;;;;;13.76;75.26;100449.56;6210012;23;20027;-67
2022/05/08 01:52:58;;;;;;;7.63;4.05;;;;;;;13.74;76.06;100462.91;6238794;23;20051;-69
2022/05/08 01:55:43;;;;;;;9.25;4.15;;;;;;;13.80;76.28;100469.91;6185978;23;20044;-67
2022/05/08 01:58:29;;;;;;;10.93;4.75;;;;;;;13.88;75.59;100460.84;6215102;23;20027;-68
2022/05/08 02:01:14;;;;;;;7.53;4.25;;;;;;;13.84;75.74;100464.47;6216090;23;20143;-67
2022/05/08 02:03:59;;;;;;;;;;;;;;;13.88;76.12;100469.75;6216594;23;20283;-68
2022/05/08 02:06:44;;;;;;;9.27;4.40;;;;;;;13.86;76.10;100456.44;6217308;23;19919;-67
2022/05/08 02:09:28;;;;;;;9.40;4.10;;;;;;;13.88;76.49;100458.16;6227427;23;20027;-68
2022/05/08 02:12:13;;;;;;;8.95;4.00;;;;;;;13.66;77.19;100445.34;6204698;23;20031;-70
2022/05/08 02:14:57;;;;;;;6.55;3.78;;;;;;;13.74;77.17;100459.41;6218856;23;20066;-67
2022/05/08 02:17:42;;;;;;;8.85;3.67;;;;;;;13.71;77.85;100460.34;6217631;23;20023;-67
2022/05/08 02:20:26;;;;;;;8.13;4.15;;;;;;;13.53;79.35;100439.41;6210057;23;20071;-67
2022/05/08 02:23:10;;;;;;;13.02;4.28;;;;;;;13.67;79.94;100460.44;6219616;23;20090;-69
2022/05/08 02:25:56;;;;;;;8.75;3.90;;;;;;;13.63;80.28;100446.31;6210056;23;20074;-67
2022/05/08 02:28:41;;;;;;;9.98;4.10;;;;;;;13.62;81.63;100454.31;6209889;23;20517;-67
2022/05/08 02:31:25;;;;;;;11.93;4.18;;;;;;;13.70;82.44;100445.22;6218726;23;20032;-77
2022/05/08 02:34:10;;;;;;;8.43;4.43;;;;;;;13.79;83.13;100423.72;6218811;23;20171;-68
2022/05/08 02:36:54;;;;;;;11.10;4.45;;;;;;;13.93;82.81;100430.53;6207264;23;20489;-68
2022/05/08 02:39:38;;;;;;;8.85;4.43;;;;;;;14.12;83.12;100438.06;6208648;23;20167;-68
2022/05/08 02:42:23;;;;;;;9.73;4.22;;;;;;;14.02;83.31;100395.63;6187784;23;20027;-67
2022/05/08 02:45:09;;;;;;;10.80;4.57;;;;;;;14.32;81.37;100443.81;6221996;23;20028;-67
2022/05/08 02:47:56;;;;;;;14.40;4.35;;;;;;;14.09;81.90;100446.16;6210445;23;20066;-67
2022/05/08 02:50:40;;;;;;;9.15;4.88;;;;;;;14.08;82.00;100457.69;6220485;23;20023;-70
2022/05/08 02:53:25;;;;;;;10.77;4.82;;;;;;;14.16;82.17;100455.72;6221723;23;20031;-67
2022/05/08 02:59:12;;;;;;;7.70;4.13;;;;;;;14.29;82.31;100451.91;6221050;23;20087;-70
2022/05/08 03:01:56;;;;;;;9.45;4.45;;;;;;;14.17;82.36;100457.50;6210334;23;20111;-67
2022/05/08 03:04:41;;;;;;;11.52;4.70;;;;;;;14.20;82.32;100452.06;6209165;23;20031;-67
2022/05/08 03:07:25;;;;;;;;;;;;;;;14.24;81.50;100456.47;6221957;23;20366;-67
2022/05/08 03:10:11;;;;;;;9.70;4.15;;;;;;;14.31;82.22;100450.06;6229806;23;20328;-68
2022/05/08 03:12:55;;;;;;;9.57;4.45;;;;;;;14.36;81.99;100448.16;6211614;23;20032;-67
2022/05/08 03:15:40;;;;;;;8.05;4.20;;;;;;;14.52;79.77;100454.88;6221548;23;20457;-67
2022/05/08 03:18:27;;;;;;;11.05;4.68;;;;;;;14.27;79.56;100456.41;6220741;23;20074;-72
2022/05/08 03:21:14;;;;;;;11.27;4.20;;;;;;;14.28;79.84;100449.28;6221552;23;20501;-67
2022/05/08 03:23:58;;;;;;;10.98;4.40;;;;;;;14.34;79.77;100450.00;6209184;23;20063;-67
2022/05/08 03:26:43;;;;;;;9.18;4.18;;;;;;;14.47;78.75;100451.44;6210230;23;20528;-67
2022/05/08 03:29:27;;;;;;;11.73;4.28;;;;;;;14.35;77.20;100456.22;6210417;23;20306;-67
2022/05/08 03:32:12;;;;;;;8.77;3.40;;;;;;;14.24;77.95;100444.94;6221577;23;20108;-67
2022/05/08 03:34:56;;;;;;;10.95;4.10;;;;;;;14.19;78.81;100461.00;6221981;23;20027;-67
2022/05/08 03:37:40;;;;;;;9.55;4.78;;;;;;;14.24;78.95;100459.13;6222179;23;20031;-70
2022/05/08 03:40:29;;;;;;;12.48;4.32;;;;;;;14.22;79.05;100455.63;6211882;23;20163;-68
2022/05/08 03:43:14;;;;;;;10.30;4.20;;;;;;;14.12;80.99;100455.88;6207774;23;20031;-69
2022/05/08 03:45:58;;;;;;;;;;;;;;;14.18;79.79;100456.59;6221895;23;20035;-68
2022/05/08 03:48:43;;;;;;;11.00;3.55;;;;;;;14.20;79.64;100457.41;6211071;23;19919;-68
2022/05/08 03:51:27;;;;;;;;;;;;;;;14.20;78.13;100460.09;6221448;23;20031;-68
2022/05/08 03:54:12;;;;;;;8.07;3.58;;;;;;;14.06;79.68;100442.66;6221381;23;20310;-67
2022/05/08 03:56:57;;;;;;;8.02;3.80;;;;;;;14.02;81.08;100456.97;6210192;23;20481;-69
2022/05/08 03:59:41;;;;;;;9.25;3.65;;;;;;;13.97;80.60;100462.44;6233188;23;20074;-67
2022/05/08 04:02:26;;;;;;;7.18;3.67;;;;;;;13.80;80.70;100440.59;6219488;23;20063;-68
2022/05/08 04:05:10;;;;;;;10.82;4.10;;;;;;;13.97;80.75;100443.75;6167735;23;20031;-68
2022/05/08 04:07:55;;;;;;;7.63;4.13;;;;;;;14.07;80.58;100447.97;6239874;23;20079;-68
2022/05/08 04:10:39;;;;;;;6.95;3.72;;;;;;;14.03;81.03;100459.59;6219572;23;20294;-68
2022/05/08 04:13:23;;;;;;;8.60;4.05;;;;;;;14.07;81.45;100452.41;6221215;23;20052;-68
2022/05/08 04:16:17;;;;;;;8.65;3.90;;;;;;;13.93;82.81;100460.75;6210892;23;20078;-65
2022/05/08 04:19:01;;;;;;;8.38;4.07;;;;;;;14.03;83.12;100459.59;6209735;23;20023;-64
2022/05/08 04:21:45;;;;;;;9.85;3.88;;;;;;;14.07;83.11;100447.97;6238509;23;20167;-64
2022/05/08 04:24:30;;;;;;;10.93;4.45;;;;;;;14.20;82.88;100453.91;6209387;23;20097;-65
2022/05/08 04:27:14;;;;;;;10.75;4.20;;;;;;;14.33;81.95;100444.72;6241028;23;20340;-64
2022/05/08 04:29:59;;;;;;;11.10;4.50;;;;;;;14.43;82.73;100444.44;6210749;23;20055;-64
2022/05/08 04:32:43;;;;;;;7.63;3.60;;;;;;;14.56;81.39;100447.69;6209610;23;20410;-65
2022/05/08 04:35:28;;;;;;;11.30;4.50;;;;;;;14.64;81.35;100448.38;6239523;23;20027;-66
2022/05/08 04:38:12;;;;;;;8.57;3.95;;;;;;;14.58;81.83;100433.38;6210458;23;20074;-65
2022/05/08 04:40:58;;;;;;;11.48;4.00;;;;;;;14.27;80.97;100392.38;6206844;23;20545;-65
2022/05/08 04:43:42;;;;;;;9.82;4.18;;;;;;;14.71;80.68;100449.97;6230790;23;20075;-65
2022/05/08 04:46:27;;;;;;;7.55;3.83;;;;;;;14.63;80.87;100444.81;6220299;23;20449;-65
2022/05/08 04:49:15;;;;;;;8.02;4.15;;;;;;;14.77;82.17;100439.13;6220557;23;20074;-65
2022/05/08 04:51:59;;;;;;;12.98;4.07;;;;;;;14.90;79.19;100444.09;6219388;23;20028;-65
2022/05/08 04:54:44;;;;;;;6.60;3.63;;;;;;;14.84;79.20;100430.03;6207202;23;20043;-66
2022/05/08 04:57:30;;;;;;;7.43;3.95;;;;;;;15.15;78.39;100437.16;6197943;23;20074;-65
2022/05/08 05:00:15;;;;;;;10.27;4.78;;;;;;;15.37;77.33;100437.47;6217847;23;20027;-65
2022/05/08 05:03:01;;;;;;;11.50;5.07;;;;;;;15.47;76.40;100447.00;6208708;23;20028;-65
2022/05/08 05:05:45;;;;;;;8.40;4.30;;;;;;;15.51;76.27;100438.81;6220249;23;20050;-65
2022/05/08 05:08:29;;;;;;;7.90;4.13;;;;;;;15.57;76.11;100440.44;6220391;23;20106;-65
2022/05/08 05:11:14;;;;;;;11.90;4.63;;;;;;;15.46;76.02;100431.88;6220407;23;20050;-65
2022/05/08 05:13:58;;;;;;;12.45;4.35;;;;;;;15.70;77.91;100437.34;6210333;23;20043;-68
2022/05/08 05:16:43;;;;;;;10.30;4.53;;;;;;;16.09;75.45;100436.13;6222125;23;20426;-65
2022/05/08 05:19:27;;;;;;;11.13;4.10;;;;;;;16.07;74.03;100421.06;6217862;23;20481;-65
2022/05/08 05:22:11;;;;;;;10.27;3.78;;;;;;;16.27;74.06;100432.88;6210492;23;20032;-66
2022/05/08 05:24:58;;;;;;;10.07;4.15;;;;;;;16.36;72.38;100434.34;6208409;23;20508;-66
2022/05/08 05:27:42;;;;;;;;;;;;;;;16.62;70.83;100426.38;6220410;23;20034;-66
2022/05/08 05:30:27;;;;;;;8.27;3.65;;;;;;;16.56;69.80;100414.06;6187365;23;19994;-65
2022/05/08 05:33:15;;;;;;;6.28;4.00;;;;;;;16.82;70.08;100413.19;6217710;23;20031;-69
2022/05/08 05:35:59;;;;;;;16.67;5.22;;;;;;;17.06;68.30;100402.44;6220238;23;20036;-65
2022/05/08 05:38:44;;;;;;;14.18;7.45;;;;;;;17.17;66.34;100410.13;6210475;23;20067;-65
2022/05/08 05:41:28;;;;;;;15.85;5.75;;;;;;;17.12;64.97;100401.34;6222164;23;20366;-65
2022/05/08 05:44:13;;;;;;;;;;;;;;;16.96;66.99;100397.47;6210076;23;20034;-65
2022/05/08 05:50:00;;;;;;;10.80;3.95;;;;;;;16.45;70.79;100405.53;6206229;23;20035;-65
2022/05/08 05:52:46;;;;;;;8.93;3.78;;;;;;;16.45;72.09;100404.63;6207682;23;20027;-65
2022/05/08 05:55:30;;;;;;;11.35;4.40;;;;;;;16.31;72.84;100394.38;6207898;23;20035;-65
2022/05/08 05:58:15;;;;;;;8.57;4.05;;;;;;;16.41;71.82;100398.53;6208733;23;20099;-65
2022/05/08 06:01:00;;;;;;;9.95;4.60;;;;;;;16.23;72.48;100387.53;6218597;23;20063;-65
2022/05/08 06:03:44;;;;;;;11.43;4.00;;;;;;;16.14;73.50;100403.88;6220007;23;20027;-64
2022/05/08 06:06:28;;;;;;;9.40;3.97;;;;;;;16.08;73.69;100393.38;6206121;23;20028;-68
2022/05/08 06:09:13;;;;;;;9.68;4.28;;;;;;;16.03;74.07;100384.63;6218862;23;20484;-64
2022/05/08 06:11:58;;;;;;;7.75;3.90;;;;;;;16.02;75.71;100358.81;6209171;23;20032;-63
2022/05/08 06:14:42;;;;;;;9.65;4.25;;;;;;;16.12;75.29;100369.16;6219932;23;20032;-63
2022/05/08 06:17:27;;;;;;;7.45;3.83;;;;;;;16.23;76.41;100358.97;6242254;23;20520;-64
2022/05/08 06:20:11;;;;;;;9.90;4.55;;;;;;;16.62;74.20;100367.47;6220599;23;20031;-67
2022/05/08 06:22:58;;;;;;;7.15;4.18;;;;;;;16.88;73.39;100357.56;6210670;23;20087;-64
2022/05/08 06:25:44;;;;;;;11.30;3.97;;;;;;;17.25;71.69;100374.03;6218167;23;20028;-64
2022/05/08 06:28:30;;;;;;;11.50;4.20;;;;;;;17.29;68.75;100373.00;6220597;23;20476;-63
2022/05/08 06:31:17;;;;;;;7.82;4.03;;;;;;;17.30;68.68;100381.94;6221373;23;20043;-64
2022/05/08 06:34:01;;;;;;;10.70;4.68;;;;;;;17.15;68.57;100375.34;6211523;23;20426;-64
2022/05/08 06:36:46;;;;;;;10.00;3.95;;;;;;;16.98;69.84;100356.28;6211513;23;20415;-63
2022/05/08 06:39:30;;;;;;;12.18;4.47;;;;;;;16.91;70.21;100378.91;6219863;23;20094;-67
2022/05/08 06:42:15;;;;;;;7.80;4.03;;;;;;;16.81;71.10;100345.31;6199042;23;20027;-64
2022/05/08 06:45:05;;;;;;;9.20;4.35;;;;;;;16.98;70.80;100366.16;6208647;23;20043;-64
2022/05/08 06:47:51;;;;;;;8.18;4.55;;;;;;;17.12;70.48;100367.41;6219834;23;20428;-65
2022/05/08 06:50:35;;;;;;;;;;;;;;;17.41;70.31;100366.34;6221799;23;20031;-63
2022/05/08 06:53:20;;;;;;;11.83;4.90;;;;;;;17.53;68.74;100341.75;6210674;23;19922;-67
2022/05/08 06:56:05;;;;;;;10.27;4.43;;;;;;;18.07;66.77;100357.44;6211377;23;20747;-64
2022/05/08 07:01:52;;;;;;;13.98;4.95;;;;;;;18.54;61.23;100367.97;6221313;23;20032;-64
2022/05/08 07:04:37;;;;;;;;;;;;;;;18.73;59.44;100371.59;6221944;23;20032;-65
2022/05/08 07:07:23;;;;;;;9.88;4.40;;;;;;;18.98;59.29;100366.03;6196376;23;20362;-65
2022/05/08 07:10:09;;;;;;;11.43;4.60;;;;;;;19.03;58.82;100358.63;6209966;23;20119;-65
2022/05/08 07:12:56;;;;;;;10.57;4.30;;;;;;;18.60;57.06;100386.53;6209149;23;20047;-64
2022/05/08 07:15:41;;;;;;;9.23;4.75;;;;;;;18.43;58.00;100367.53;6219812;23;20051;-64
2022/05/08 07:18:27;;;;;;;14.65;4.43;;;;;;;18.60;57.94;100354.28;6241432;23;20023;-63
2022/05/08 07:21:11;;;;;;;11.45;4.15;;;;;;;18.79;58.41;100374.00;6218718;23;20047;-68
2022/05/08 07:23:56;;;;;;;12.30;3.97;;;;;;;19.08;57.57;100364.66;6210040;23;20027;-66
2022/05/08 07:26:41;;;;;;;9.77;3.92;;;;;;;18.94;57.98;100377.88;6207353;23;20489;-69
2022/05/08 07:29:26;;;;;;;8.48;4.10;;;;;;;18.62;57.91;100359.59;6166987;23;20028;-65
2022/05/08 07:32:11;;;;;;;10.82;4.88;;;;;;;18.73;59.11;100354.59;6219652;23;20035;-65
2022/05/08 07:37:58;;;;;;;13.80;4.65;;;;;;;18.48;58.89;100333.31;6188148;23;20028;-65
2022/05/08 07:40:47;;;;;;;14.50;4.90;;;;;;;18.54;58.92;100338.41;6240272;23;20071;-64
2022/05/08 07:43:32;;;;;;;8.95;4.88;;;;;;;18.67;58.50;100354.88;6219400;23;20031;-64
2022/05/08 07:46:16;;;;;;;8.68;4.88;;;;;;;18.50;58.27;100343.97;6241198;23;20031;-64
2022/05/08 07:49:01;;;;;;;9.65;4.63;;;;;;;18.53;58.69;100351.91;6218502;23;20426;-68
2022/05/08 07:51:45;;;;;;;13.43;4.63;;;;;;;18.50;57.44;100350.22;6209114;23;20043;-65
2022/05/08 07:54:31;;;;;;;8.32;4.40;;;;;;;18.31;57.06;100345.69;6218210;23;20036;-64
2022/05/08 07:57:15;;;;;;;10.57;4.65;;;;;;;18.31;58.37;100337.63;6209591;23;20043;-69
2022/05/08 08:00:00;;;;;;;12.15;4.57;;;;;;;18.28;57.89;100335.94;6188595;23;20046;-64
2022/05/08 08:02:44;;;;;;;10.77;4.85;;;;;;;18.33;57.57;100333.94;6209845;23;20027;-72
2022/05/08 08:05:30;;;;;;;15.35;5.05;;;;;;;18.51;58.05;100330.47;6219580;23;20032;-63
2022/05/08 08:08:17;;;;;;;8.00;4.28;;;;;;;18.65;57.44;100332.56;6186393;23;20370;-65
2022/05/08 08:11:04;;;;;;;10.40;4.78;;;;;;;18.72;55.38;100334.06;6209192;23;20367;-63
2022/05/08 08:13:49;;;;;;;9.40;4.15;;;;;;;18.74;55.29;100343.78;6209275;23;20359;-64
2022/05/08 08:16:33;;;;;;;11.15;4.85;;;;;;;18.49;54.20;100323.44;6219512;23;20032;-63
2022/05/08 08:19:17;;;;;;;8.00;4.68;;;;;;;18.55;55.69;100315.97;6221043;23;20167;-65
2022/05/08 08:22:04;;;;;;;12.18;4.70;;;;;;;18.50;55.70;100323.38;6210701;23;20031;-68
2022/05/08 08:24:49;;;;;;;7.50;4.03;;;;;;;18.38;55.06;100326.59;6218922;23;20493;-65
2022/05/08 08:27:33;;;;;;;;;;;;;;;18.59;54.65;100327.47;6218851;23;20082;-64
2022/05/08 08:30:18;;;;;;;12.00;5.00;;;;;;;18.60;54.95;100324.72;6209240;23;19986;-65
2022/05/08 08:33:02;;;;;;;13.32;4.97;;;;;;;18.74;54.92;100316.06;6217106;23;20074;-66
2022/05/08 08:35:48;;;;;;;14.68;5.38;;;;;;;18.86;54.15;100318.22;6210285;23;20035;-67
2022/05/08 08:38:33;;;;;;;12.48;5.28;;;;;;;18.84;53.43;100295.88;6209948;23;20026;-68
2022/05/08 08:41:26;;;;;;;8.90;5.22;;;;;;;18.80;52.79;100326.53;6208918;23;20334;-65
2022/05/08 08:50:23;;;;;;;15.30;6.97;;;;;;;18.85;53.23;100308.38;6218793;23;20036;-64
2022/05/08 08:53:07;;;;;;;10.32;6.03;;;;;;;18.79;50.62;100322.97;6207270;23;20074;-68
2022/05/08 08:55:52;;;;;;;10.60;6.35;;;;;;;18.94;50.93;100299.91;6220069;23;20028;-67
2022/05/08 08:58:37;;;;;;;11.02;5.53;;;;;;;19.05;48.55;100287.72;6217732;23;20079;-64
2022/05/08 09:01:22;;;;;;;21.10;7.05;;;;;;;19.07;47.54;100304.63;6219040;23;20031;-66
2022/05/08 09:04:12;;;;;;;14.40;6.03;;;;;;;18.94;48.11;100303.47;6207926;23;20094;-63
2022/05/08 09:06:56;;;;;;;14.20;7.10;;;;;;;18.86;48.73;100299.41;6219780;23;20419;-64
2022/05/08 09:09:41;;;;;;;20.65;6.88;;;;;;;18.77;49.11;100295.28;6220430;23;20034;-68
2022/05/08 09:12:26;;;;;;;11.70;6.55;;;;;;;18.83;49.47;100283.41;6185264;23;20080;-68
2022/05/08 09:15:21;;;;;;;13.02;6.55;;;;;;;18.84;50.43;100298.56;6220290;23;20523;-65
2022/05/08 09:18:12;;;;;;;12.77;6.45;;;;;;;18.74;49.09;100289.19;6197968;23;20031;-66
2022/05/08 09:21:54;;;;;;;15.75;6.28;;;;;;;18.70;49.76;100288.44;6217481;23;20418;-70
2022/05/08 09:24:11;;;;;;;11.30;5.85;;;;;;;18.66;49.81;100288.66;6210132;23;20032;-68
2022/05/08 09:27:17;;;;;;;12.32;5.93;;;;;;;18.75;50.58;100297.16;6219981;23;20028;-65
2022/05/08 09:30:09;;;;;;;16.48;6.00;;;;;;;18.88;50.82;100292.13;6220159;23;20107;-73
2022/05/08 09:32:54;;;;;;;13.35;6.05;;;;;;;18.83;51.00;100265.44;6184883;23;20104;-67
2022/05/08 09:35:44;;;;;;;14.95;5.80;;;;;;;18.74;52.01;100303.47;6209740;23;20031;-67
2022/05/08 09:38:51;;;;;;;13.75;5.75;;;;;;;18.66;52.09;100284.16;6219611;23;20043;-68
2022/05/08 09:41:39;;;;;;;19.38;5.43;;;;;;;18.64;52.83;100269.03;6240059;23;20027;-66
2022/05/08 09:44:24;;;;;;;10.50;5.70;;;;;;;18.97;50.60;100270.19;6208492;23;20473;-72
2022/05/08 09:47:08;;;;;;;11.25;5.55;;;;;;;19.19;50.30;100258.34;6208945;23;20027;-69
2022/05/08 09:49:52;;;;;;;13.63;5.60;;;;;;;19.39;50.55;100277.19;6216088;23;20027;-73
2022/05/08 09:52:42;;;;;;;16.17;6.03;;;;;;;19.18;51.31;100262.00;6208047;23;20031;-67
2022/05/08 09:55:28;;;;;;;12.70;5.63;;;;;;;19.18;50.40;100275.44;6197032;23;20047;-66
2022/05/08 09:58:12;;;;;;;;;;;;;;;19.23;50.33;100286.00;6220362;23;20032;-66
2022/05/08 10:00:58;;;;;;;14.10;5.30;;;;;;;19.44;51.02;100264.38;6219909;23;19922;-67
2022/05/08 10:03:46;;;;;;;15.35;5.05;;;;;;;19.12;51.68;100269.50;6206422;23;20414;-72
2022/05/08 10:06:40;;;;;;;14.13;6.25;;;;;;;18.86;58.86;100276.06;6240341;23;20051;-72
2022/05/08 10:15:36;;;;;;;11.02;4.90;;;;;;;19.37;54.19;100252.16;6233478;23;20032;-72
2022/05/08 10:18:28;;;;;;;11.25;4.82;;;;;;;19.39;53.97;100247.59;6209575;23;20155;-70
2022/05/08 10:21:16;;;;;;;;;;;;;;;19.52;52.18;100254.13;6220089;23;20071;-72
2022/05/08 10:24:21;;;;;;;12.02;5.18;;;;;;;19.83;50.21;100248.97;6217154;23;20412;-72
2022/05/08 10:27:14;;;;;;;11.60;5.18;;;;;;;21.19;45.38;100224.63;6208542;23;20032;-74
2022/05/08 10:29:59;;;;;;;14.43;4.97;;;;;;;22.20;40.14;100226.81;6208166;23;20505;-73
2022/05/08 10:32:50;;;;;;;15.40;5.38;;;;;;;22.69;38.30;100224.69;6207205;23;20031;-74
2022/05/08 10:35:35;;;;;;;17.92;4.68;;;;;;;22.45;37.62;100234.28;6208454;23;20106;-69
2022/05/08 10:38:21;;;;;;;14.23;4.13;;;;;;;22.77;36.07;100228.66;6219710;23;20387;-66
2022/05/08 10:41:56;;;;;;;19.30;4.20;;;;;;;23.48;35.11;100207.84;6218459;23;20027;-73
2022/05/08 10:44:42;;;;;;;15.80;4.07;;;;;;;22.52;34.46;100219.47;6147541;23;20445;-67
2022/05/08 10:47:36;;;;;;;13.48;4.22;;;;;;;21.88;36.62;100195.44;6136855;23;20037;-67
2022/05/08 10:50:23;;;;;;;11.65;4.22;;;;;;;21.53;38.26;100156.97;6143897;23;20036;-66
2022/05/08 10:53:29;;;;;;;10.77;4.25;;;;;;;21.49;39.94;100184.22;6208107;23;20120;-65
2022/05/08 10:56:14;;;;;;;14.60;4.32;;;;;;;21.45;39.17;100161.94;6217384;23;20071;-66
2022/05/08 10:58:59;;;;;;;11.30;3.90;;;;;;;21.89;37.12;100181.84;6196803;23;20113;-68
2022/05/08 11:01:50;;;;;;;11.57;3.92;;;;;;;22.64;36.28;100178.16;6220295;23;20401;-67
2022/05/08 11:04:50;;;;;;;14.63;4.35;;;;;;;22.83;36.00;100162.50;6211255;23;20070;-65
2022/05/08 11:07:37;;;;;;;19.38;4.65;;;;;;;22.23;35.87;100174.41;6211545;23;20035;-65
2022/05/08 11:10:24;;;;;;;10.43;4.30;;;;;;;22.30;36.32;100149.59;6221411;23;20485;-66
2022/05/08 11:13:19;;;;;;;18.42;5.03;;;;;;;22.46;36.44;100136.03;6167576;23;20035;-70
2022/05/08 11:16:03;;;;;;;9.40;3.75;;;;;;;22.31;37.00;100143.22;6211177;23;20024;-70
2022/05/08 11:18:48;;;;;;;13.52;4.25;;;;;;;22.31;36.76;100145.94;6197386;23;20239;-67
2022/05/08 11:21:34;;;;;;;13.05;4.65;;;;;;;22.43;37.32;100145.22;6211108;23;20138;-66
2022/05/08 11:24:23;;;;;;;7.40;4.03;;;;;;;22.83;35.86;100162.50;6188522;23;20409;-66
2022/05/08 11:27:12;;;;;;;14.45;3.80;;;;;;;22.33;36.03;100189.09;6196306;23;20027;-68
2022/05/08 11:29:56;;;;;;;9.50;3.80;;;;;;;21.63;38.39;100139.28;6221027;23;20100;-66
2022/05/08 11:36:04;;;;;;;7.07;3.90;;;;;;;20.99;41.11;100137.69;6165952;23;20358;-65
2022/05/08 11:39:04;;;;;;;10.98;4.30;;;;;;;21.10;41.63;100127.16;6166758;23;20070;-69
2022/05/08 11:41:51;;;;;;;10.27;4.13;;;;;;;20.93;41.39;100165.00;6221019;23;20039;-66
2022/05/08 11:44:36;;;;;;;11.52;5.05;;;;;;;20.89;41.82;100134.59;6167466;23;20106;-65
2022/05/08 11:47:20;;;;;;;12.93;4.25;;;;;;;21.01;42.27;100106.13;6210403;23;20334;-69
2022/05/08 11:50:08;;;;;;;12.40;3.95;;;;;;;20.84;41.44;100117.81;6210266;23;20099;-65
2022/05/08 11:53:01;;;;;;;10.95;4.60;;;;;;;20.82;41.62;100127.84;6218556;23;20028;-67
2022/05/08 11:55:46;;;;;;;10.20;3.97;;;;;;;20.96;41.66;100105.50;6198028;23;20031;-66
2022/05/08 11:58:32;;;;;;;11.65;4.78;;;;;;;21.26;41.43;100096.53;6188017;23;20070;-66
2022/05/08 12:01:22;;;;;;;9.15;4.30;;;;;;;21.28;40.67;100104.53;6209748;23;20031;-77
2022/05/08 12:04:27;;;;;;;11.90;4.57;;;;;;;21.70;39.28;100120.88;6220425;23;20027;-69
2022/05/08 12:07:15;;;;;;;10.60;4.38;;;;;;;21.47;39.01;100118.66;6210731;23;20525;-66
2022/05/08 12:10:00;;;;;;;17.38;4.18;;;;;;;21.72;38.98;100092.00;6144250;23;20062;-66
2022/05/08 12:12:46;;;;;;;11.05;3.90;;;;;;;21.65;38.17;100096.00;6198228;23;20082;-66
2022/05/08 12:15:30;;;;;;;6.97;3.60;;;;;;;21.40;38.65;100077.69;6197952;23;20358;-66
2022/05/08 12:18:16;;;;;;;11.50;3.67;;;;;;;21.41;38.71;100086.66;6220456;23;20031;-68
2022/05/08 12:21:00;;;;;;;8.95;3.88;;;;;;;21.33;39.10;100072.75;6198036;23;20054;-66
2022/05/08 12:23:44;;;;;;;7.03;4.03;;;;;;;21.21;39.56;100108.53;6219409;23;20454;-67
2022/05/08 12:26:31;;;;;;;10.85;4.07;;;;;;;20.98;40.36;100072.13;6167023;23;20378;-67
2022/05/08 12:29:18;;;;;;;7.20;4.28;;;;;;;21.31;41.69;100066.56;6164393;23;20596;-65
2022/05/08 12:32:03;;;;;;;9.80;3.80;;;;;;;21.57;40.90;100055.09;6197764;23;20083;-66
2022/05/08 12:34:48;;;;;;;6.75;3.95;;;;;;;21.37;40.45;100074.31;6210617;23;20434;-71
2022/05/08 12:37:32;;;;;;;7.72;4.10;;;;;;;21.46;40.69;100054.88;6220173;23;20311;-63
2022/05/08 12:40:19;;;;;;;6.03;3.38;;;;;;;21.18;40.16;100070.94;6187824;23;20031;-64
2022/05/08 12:43:06;;;;;;;10.45;4.28;;;;;;;21.05;40.48;100064.53;6175708;23;20031;-70
2022/05/08 12:45:50;;;;;;;13.45;4.10;;;;;;;20.80;40.22;100035.38;6166901;23;20125;-65
2022/05/08 12:48:35;;;;;;;9.48;5.78;;;;;;;20.97;40.32;100056.03;6209094;23;20043;-66
2022/05/08 12:51:23;;;;;;;10.25;4.40;;;;;;;20.95;40.66;100060.63;6157921;23;20028;-67
2022/05/08 12:54:15;;;;;;;13.38;6.25;;;;;;;21.00;41.68;100051.31;6188862;23;20367;-67
2022/05/08 12:57:00;;;;;;;10.95;5.13;;;;;;;21.11;41.05;100058.78;6187747;23;20365;-69
2022/05/08 12:59:47;;;;;;;8.88;4.13;;;;;;;21.17;40.35;100040.41;6178738;23;20032;-66
2022/05/08 13:02:31;;;;;;;7.72;4.07;;;;;;;21.19;40.92;100043.00;6187849;23;20460;-67
2022/05/08 13:05:16;;;;;;;9.77;3.83;;;;;;;21.31;40.65;100026.09;6158182;23;20406;-66
2022/05/08 13:08:02;;;;;;;8.70;4.15;;;;;;;21.19;40.77;100033.09;6190419;23;20043;-66
2022/05/08 13:10:49;;;;;;;10.32;4.20;;;;;;;21.11;40.91;100012.91;6187913;23;20063;-71
2022/05/08 13:13:37;;;;;;;11.68;4.40;;;;;;;21.08;41.08;100007.69;6179969;23;20056;-67
2022/05/08 13:16:23;;;;;;;7.15;4.05;;;;;;;20.89;41.40;100004.34;6176555;23;20027;-67
2022/05/08 13:19:07;;;;;;;11.60;4.10;;;;;;;20.84;42.40;100009.09;6190344;23;20060;-67
2022/05/08 13:21:51;;;;;;;14.50;4.22;;;;;;;20.71;42.33;100000.00;6178748;23;20079;-66
2022/05/08 13:24:36;;;;;;;12.40;4.38;;;;;;;20.68;43.37;100014.50;6178263;23;20032;-67